Time;durP1;ratioP1;P1;durP2;ratioP2;P2;SDS_P1;SDS_P2;PMS_P1;PMS_P2;Temp;Humidity;BMP_temperature;BMP_pressure;BME280_temperature;BME280_humidity;BME280_pressure;Samples;Min_cycle;Max_cycle;Signal;HPM_P1;HPM_P2
2022/07/07 00:00:28;;;;;;;2.33;2.12;;;18.20;71.10;;;;;;2268554;59;21086;-77
2022/07/07 00:02:55;;;;;;;2.40;2.20;;;18.20;71.20;;;;;;2268031;59;21065;-73
2022/07/07 00:05:24;;;;;;;3.15;2.85;;;18.20;71.50;;;;;;2267597;59;21138;-75
2022/07/07 00:07:51;;;;;;;2.83;2.45;;;18.20;71.30;;;;;;2267988;59;21149;-77
2022/07/07 00:10:19;;;;;;;2.42;2.22;;;18.20;72.00;;;;;;2310413;55;21138;-76
2022/07/07 00:12:46;;;;;;;4.00;2.30;;;18.20;72.10;;;;;;2268065;59;21625;-77
2022/07/07 00:15:14;;;;;;;2.72;2.25;;;18.20;72.40;;;;;;2267218;59;21070;-76
2022/07/07 00:17:41;;;;;;;2.30;2.10;;;18.20;72.70;;;;;;2267900;59;21103;-76
2022/07/07 00:20:10;;;;;;;2.60;2.40;;;18.20;72.20;;;;;;2267152;59;21149;-77
2022/07/07 00:22:37;;;;;;;2.45;2.25;;;18.20;72.20;;;;;;2358748;55;21118;-76
2022/07/07 00:25:06;;;;;;;2.30;2.00;;;18.10;72.30;;;;;;2392620;55;21560;-76
2022/07/07 00:27:33;;;;;;;3.28;2.20;;;18.20;72.20;;;;;;2267307;59;21050;-76
2022/07/07 00:30:03;;;;;;;2.70;2.50;;;18.20;72.00;;;;;;2267887;59;21058;-76
2022/07/07 00:32:31;;;;;;;3.10;2.78;;;18.20;72.60;;;;;;2267060;59;21102;-75
2022/07/07 00:34:59;;;;;;;2.83;2.40;;;18.20;73.10;;;;;;2267547;59;21082;-77
2022/07/07 00:37:26;;;;;;;3.10;2.40;;;18.20;73.30;;;;;;2305859;55;22173;-77
2022/07/07 00:39:53;;;;;;;2.75;2.22;;;18.10;73.20;;;;;;2383675;55;21059;-77
2022/07/07 00:42:21;;;;;;;2.78;2.58;;;18.10;72.50;;;;;;2287820;55;21640;-74
2022/07/07 00:44:48;;;;;;;3.17;2.87;;;18.20;72.70;;;;;;2267661;59;21141;-77
2022/07/07 00:47:18;;;;;;;3.62;2.75;;;18.20;73.20;;;;;;2267702;59;21074;-76
2022/07/07 00:49:45;;;;;;;4.62;3.42;;;18.10;73.50;;;;;;2267500;59;21319;-75
2022/07/07 00:52:13;;;;;;;3.12;2.83;;;18.10;73.60;;;;;;2268533;59;21050;-77
2022/07/07 00:54:49;;;;;;;6.72;4.40;;;18.20;73.80;;;;;;2268097;59;21632;-76
2022/07/07 00:57:16;;;;;;;4.00;3.30;;;18.10;73.90;;;;;;2267685;59;21073;-75
2022/07/07 00:59:44;;;;;;;3.37;2.65;;;18.10;73.90;;;;;;2267212;59;21078;-76
2022/07/07 01:02:11;;;;;;;3.55;3.17;;;18.10;73.50;;;;;;2267522;59;21552;-77
2022/07/07 01:04:39;;;;;;;5.65;3.58;;;18.10;74.10;;;;;;2340926;55;21137;-77
2022/07/07 01:07:06;;;;;;;2.70;2.50;;;18.20;74.00;;;;;;2267567;59;21608;-77
2022/07/07 01:09:34;;;;;;;3.25;2.95;;;18.20;74.10;;;;;;2270111;55;21130;-77
2022/07/07 01:12:02;;;;;;;4.05;2.53;;;18.20;74.10;;;;;;2272192;55;21093;-77
2022/07/07 01:14:29;;;;;;;3.03;2.70;;;18.20;73.70;;;;;;2267881;59;21069;-78
2022/07/07 01:16:57;;;;;;;2.55;2.35;;;18.20;73.70;;;;;;2268004;59;21145;-76
2022/07/07 01:19:25;;;;;;;3.25;2.90;;;18.20;73.80;;;;;;2268805;59;21066;-78
2022/07/07 01:21:55;;;;;;;2.83;2.58;;;18.20;73.50;;;;;;2295527;55;21062;-78
2022/07/07 01:24:24;;;;;;;2.58;2.37;;;18.20;73.80;;;;;;2268124;59;21073;-77
2022/07/07 01:27:05;;;;;;;2.80;2.42;;;18.20;74.30;;;;;;2332589;55;21157;-76
2022/07/07 01:29:36;;;;;;;2.65;2.45;;;18.20;74.30;;;;;;2267102;59;21073;-78
2022/07/07 01:32:05;;;;;;;2.35;2.12;;;18.20;74.50;;;;;;2268564;59;21228;-77
2022/07/07 01:34:33;;;;;;;2.60;2.40;;;18.20;74.30;;;;;;2267776;59;21224;-77
2022/07/07 01:37:00;;;;;;;4.40;3.15;;;18.20;74.40;;;;;;2267768;59;21142;-76
2022/07/07 01:39:27;;;;;;;2.55;2.33;;;18.20;74.70;;;;;;2268683;59;21058;-77
2022/07/07 01:41:54;;;;;;;3.83;2.42;;;18.20;75.30;;;;;;2272353;55;21070;-77
2022/07/07 01:44:22;;;;;;;3.97;2.33;;;18.10;75.30;;;;;;2268214;59;21070;-77
2022/07/07 01:46:50;;;;;;;2.85;2.35;;;18.20;75.10;;;;;;2267205;59;21652;-77
2022/07/07 01:49:17;;;;;;;2.20;2.00;;;18.20;74.90;;;;;;2268147;59;21070;-76
2022/07/07 01:51:45;;;;;;;3.12;2.83;;;18.20;74.70;;;;;;2268777;59;21082;-76
2022/07/07 01:54:12;;;;;;;4.75;2.95;;;18.20;74.90;;;;;;2268357;59;21138;-77
2022/07/07 01:56:40;;;;;;;3.60;3.12;;;18.20;75.40;;;;;;2271654;55;21078;-78
2022/07/07 01:59:08;;;;;;;2.92;2.70;;;18.20;75.70;;;;;;2350381;55;21586;-78
2022/07/07 02:01:36;;;;;;;3.08;2.53;;;18.20;75.50;;;;;;2300695;55;21077;-77
2022/07/07 02:04:03;;;;;;;4.53;2.95;;;18.20;76.00;;;;;;2312545;55;21061;-75
2022/07/07 02:06:30;;;;;;;4.35;2.80;;;18.20;76.10;;;;;;2309855;55;21090;-76
2022/07/07 02:08:58;;;;;;;3.97;3.03;;;18.20;76.20;;;;;;2268575;59;21082;-76
2022/07/07 02:11:26;;;;;;;2.83;2.60;;;18.20;75.70;;;;;;2268936;59;21113;-76
2022/07/07 02:13:53;;;;;;;2.90;2.60;;;18.30;75.60;;;;;;2268816;59;21150;-77
2022/07/07 02:16:25;;;;;;;3.30;2.75;;;18.30;75.70;;;;;;2267726;59;21085;-76
2022/07/07 02:18:55;;;;;;;2.78;2.58;;;18.30;76.10;;;;;;2268656;59;21145;-76
2022/07/07 02:21:23;;;;;;;3.33;3.03;;;18.30;75.50;;;;;;2267285;59;21081;-77
2022/07/07 02:23:52;;;;;;;3.60;3.15;;;18.30;75.70;;;;;;2359446;55;21122;-77
2022/07/07 02:26:20;;;;;;;3.55;3.20;;;18.30;75.20;;;;;;2306287;55;21078;-77
2022/07/07 02:28:48;;;;;;;5.07;4.03;;;18.30;75.50;;;;;;2268245;59;21074;-76
2022/07/07 02:31:16;;;;;;;3.97;3.45;;;18.30;75.70;;;;;;2268264;59;21149;-76
2022/07/07 02:33:44;;;;;;;4.50;4.10;;;18.30;75.60;;;;;;2268931;59;21588;-77
2022/07/07 02:36:12;;;;;;;4.12;3.72;;;18.30;75.80;;;;;;2268306;59;21114;-78
2022/07/07 02:38:40;;;;;;;5.20;4.18;;;18.30;75.50;;;;;;2267983;59;21058;-77
2022/07/07 02:41:07;;;;;;;6.78;5.40;;;18.30;75.70;;;;;;2271477;55;21082;-77
2022/07/07 02:43:35;;;;;;;4.07;3.67;;;18.30;76.10;;;;;;2269045;59;21074;-77
2022/07/07 02:46:03;;;;;;;5.00;4.20;;;18.30;76.60;;;;;;2267361;59;21078;-77
2022/07/07 02:48:31;;;;;;;5.20;4.22;;;18.30;76.50;;;;;;2364867;55;21136;-76
2022/07/07 02:50:59;;;;;;;6.55;4.03;;;18.30;75.90;;;;;;2317824;55;21078;-77
2022/07/07 02:53:26;;;;;;;4.28;3.78;;;18.30;76.30;;;;;;2267970;59;21058;-78
2022/07/07 02:55:53;;;;;;;4.72;3.65;;;18.30;75.90;;;;;;2268077;59;21070;-77
2022/07/07 02:58:22;;;;;;;4.18;3.70;;;18.40;76.70;;;;;;2268311;59;21062;-77
2022/07/07 03:00:51;;;;;;;6.05;4.85;;;18.40;76.00;;;;;;2292590;55;21078;-77
2022/07/07 03:03:18;;;;;;;4.20;3.72;;;18.40;76.20;;;;;;2268110;59;21066;-76
2022/07/07 03:05:46;;;;;;;4.47;3.90;;;18.40;76.20;;;;;;2267474;59;21058;-76
2022/07/07 03:08:13;;;;;;;5.32;4.82;;;18.50;76.20;;;;;;2339741;55;21134;-76
2022/07/07 03:10:41;;;;;;;6.30;5.53;;;18.50;76.30;;;;;;2268566;59;21066;-77
2022/07/07 03:13:09;;;;;;;7.50;6.43;;;18.50;76.30;;;;;;2267562;59;21359;-77
2022/07/07 03:15:36;;;;;;;5.93;5.32;;;18.50;75.60;;;;;;2268182;59;21624;-76
2022/07/07 03:18:04;;;;;;;8.20;6.57;;;18.50;75.60;;;;;;2268904;59;21058;-76
2022/07/07 03:20:31;;;;;;;9.38;6.80;;;18.50;75.40;;;;;;2268029;59;21193;-76
2022/07/07 03:22:58;;;;;;;8.77;7.32;;;18.50;76.00;;;;;;2268126;59;21090;-76
2022/07/07 03:28:02;;;;;;;8.88;7.15;;;18.50;76.20;;;;;;2355870;57;22105;-76
2022/07/07 03:30:30;;;;;;;7.82;6.82;;;18.50;76.20;;;;;;2364631;56;21038;-75
2022/07/07 03:32:57;;;;;;;8.77;7.50;;;18.50;76.20;;;;;;2374960;56;21110;-73
2022/07/07 03:35:24;;;;;;;9.45;7.62;;;18.60;74.70;;;;;;2373416;56;21043;-75
2022/07/07 03:37:52;;;;;;;9.02;7.62;;;18.60;76.00;;;;;;2503094;52;21103;-75
2022/07/07 03:40:19;;;;;;;13.27;9.68;;;18.50;76.10;;;;;;2628881;52;21086;-76
2022/07/07 03:42:47;;;;;;;19.65;9.73;;;18.60;76.70;;;;;;2375304;56;21039;-75
2022/07/07 03:45:14;;;;;;;12.00;8.80;;;18.60;77.00;;;;;;2374658;56;21074;-73
2022/07/07 03:47:41;;;;;;;12.48;8.65;;;18.50;76.90;;;;;;2374555;56;21026;-76
2022/07/07 03:50:10;;;;;;;11.63;8.27;;;18.50;77.10;;;;;;2375180;56;21047;-75
2022/07/07 03:52:37;;;;;;;13.32;9.70;;;18.50;77.20;;;;;;2373889;56;21130;-76
2022/07/07 03:55:07;;;;;;;12.27;8.40;;;18.60;77.40;;;;;;2372628;54;21577;-75
2022/07/07 03:57:34;;;;;;;9.90;8.55;;;18.60;77.00;;;;;;2374077;56;21378;-75
2022/07/07 04:00:02;;;;;;;13.93;8.57;;;18.60;77.30;;;;;;2409237;52;21035;-75
2022/07/07 04:02:29;;;;;;;10.48;7.97;;;18.60;77.10;;;;;;2374346;56;21118;-75
2022/07/07 04:04:57;;;;;;;11.27;8.65;;;18.60;76.80;;;;;;2374368;56;21043;-75
2022/07/07 04:07:24;;;;;;;10.10;7.75;;;18.60;76.90;;;;;;2373824;56;21108;-76
2022/07/07 04:09:51;;;;;;;10.43;7.65;;;18.60;76.90;;;;;;2467465;52;21194;-75
2022/07/07 04:12:19;;;;;;;9.35;6.87;;;18.60;77.10;;;;;;2392042;52;21075;-75
2022/07/07 04:14:46;;;;;;;7.40;6.18;;;18.60;76.70;;;;;;2374628;56;21205;-75
2022/07/07 04:17:13;;;;;;;8.73;6.15;;;18.60;76.40;;;;;;2374438;56;21098;-75
2022/07/07 04:19:40;;;;;;;7.82;6.07;;;18.60;76.20;;;;;;2379031;52;21035;-75
2022/07/07 04:22:08;;;;;;;8.48;6.50;;;18.70;76.20;;;;;;2436045;52;21038;-76
2022/07/07 04:24:35;;;;;;;8.63;7.40;;;18.70;75.80;;;;;;2494998;54;21553;-75
2022/07/07 04:27:04;;;;;;;8.75;5.90;;;18.70;76.50;;;;;;2300564;58;21066;-74
2022/07/07 04:29:32;;;;;;;8.68;7.20;;;18.70;75.80;;;;;;2301650;58;21121;-74
2022/07/07 04:31:59;;;;;;;7.20;5.68;;;18.70;76.30;;;;;;2300016;58;21034;-74
2022/07/07 04:34:26;;;;;;;7.50;5.65;;;18.70;75.60;;;;;;2300362;58;21042;-74
2022/07/07 04:36:54;;;;;;;6.07;5.35;;;18.70;76.40;;;;;;2298816;58;21031;-74
2022/07/07 04:39:22;;;;;;;8.95;5.75;;;18.80;75.70;;;;;;2299666;58;21035;-75
2022/07/07 04:41:49;;;;;;;6.25;5.60;;;18.80;75.40;;;;;;2299647;58;21217;-74
2022/07/07 04:44:16;;;;;;;5.90;5.05;;;18.80;75.40;;;;;;2300380;58;21089;-74
2022/07/07 04:46:44;;;;;;;8.35;5.87;;;18.80;75.30;;;;;;2298123;58;21055;-75
2022/07/07 04:49:11;;;;;;;6.82;5.32;;;18.80;74.80;;;;;;2299818;58;21054;-75
2022/07/07 04:51:39;;;;;;;8.32;5.95;;;18.90;75.30;;;;;;2299997;58;21573;-74
2022/07/07 04:54:06;;;;;;;7.93;5.90;;;18.80;75.50;;;;;;2300199;58;21129;-75
2022/07/07 04:56:34;;;;;;;5.95;5.15;;;18.90;75.40;;;;;;2299350;58;21121;-74
2022/07/07 04:59:01;;;;;;;5.78;5.10;;;18.90;76.00;;;;;;2300282;58;21113;-74
2022/07/07 05:01:28;;;;;;;5.72;4.57;;;18.80;76.40;;;;;;2300317;58;21059;-74
2022/07/07 05:03:55;;;;;;;6.55;5.32;;;18.80;76.60;;;;;;2300112;58;21072;-75
2022/07/07 05:06:23;;;;;;;6.18;5.47;;;18.80;76.60;;;;;;2298831;58;21154;-74
2022/07/07 05:08:50;;;;;;;7.78;6.28;;;18.80;76.70;;;;;;2300576;58;21054;-75
2022/07/07 05:11:17;;;;;;;10.00;5.62;;;18.90;77.20;;;;;;2299237;58;21113;-75
2022/07/07 05:13:45;;;;;;;9.10;6.20;;;18.90;77.40;;;;;;2299821;58;21067;-75
2022/07/07 05:16:12;;;;;;;8.18;6.20;;;18.90;77.30;;;;;;2299845;58;21130;-75
2022/07/07 05:18:39;;;;;;;7.28;6.05;;;18.90;77.40;;;;;;2298293;58;21050;-74
2022/07/07 05:21:06;;;;;;;8.35;5.75;;;18.90;77.40;;;;;;2299521;58;21050;-74
2022/07/07 05:23:34;;;;;;;7.57;5.60;;;18.90;77.50;;;;;;2300268;58;21145;-74
2022/07/07 05:26:01;;;;;;;4.62;4.22;;;18.90;77.40;;;;;;2298145;58;21186;-75
2022/07/07 05:28:31;;;;;;;6.53;4.10;;;18.90;76.90;;;;;;2299554;58;21544;-74
2022/07/07 05:30:59;;;;;;;4.40;4.00;;;18.90;77.30;;;;;;2300284;58;21553;-75
2022/07/07 05:33:26;;;;;;;4.18;3.58;;;18.90;76.90;;;;;;2300602;58;21408;-75
2022/07/07 05:35:54;;;;;;;3.70;3.22;;;18.90;77.40;;;;;;2299787;58;21194;-75
2022/07/07 05:38:21;;;;;;;2.78;2.28;;;18.90;77.20;;;;;;2300353;58;21058;-75
2022/07/07 05:40:48;;;;;;;2.65;2.08;;;19.00;76.50;;;;;;2300065;58;21063;-76
2022/07/07 05:43:16;;;;;;;2.35;1.90;;;19.00;76.80;;;;;;2300454;58;21074;-75
2022/07/07 05:45:43;;;;;;;1.92;1.62;;;19.00;77.70;;;;;;2299277;58;21320;-75
2022/07/07 05:48:10;;;;;;;3.10;2.00;;;19.00;77.70;;;;;;2300057;58;21113;-75
2022/07/07 05:50:38;;;;;;;1.65;1.55;;;19.00;77.50;;;;;;2300456;58;21063;-75
2022/07/07 05:53:05;;;;;;;1.50;1.40;;;19.10;77.60;;;;;;2300687;58;21046;-75
2022/07/07 05:55:33;;;;;;;1.95;1.60;;;19.10;77.50;;;;;;2298398;58;21093;-75
2022/07/07 05:58:00;;;;;;;1.95;1.20;;;19.10;78.00;;;;;;2300387;58;21059;-75
2022/07/07 06:00:28;;;;;;;2.58;1.30;;;19.10;78.90;;;;;;2300309;58;21070;-75
2022/07/07 06:02:56;;;;;;;2.45;1.37;;;19.20;78.10;;;;;;2300360;58;21118;-75
2022/07/07 06:05:23;;;;;;;1.62;1.30;;;19.20;78.30;;;;;;2300107;58;21133;-75
2022/07/07 06:07:50;;;;;;;2.70;1.40;;;19.30;78.60;;;;;;2300252;58;21050;-76
2022/07/07 06:10:18;;;;;;;1.48;1.37;;;19.30;78.60;;;;;;2299992;58;21547;-75
2022/07/07 06:12:45;;;;;;;3.12;1.60;;;19.30;78.80;;;;;;2300232;58;21050;-75
2022/07/07 06:15:13;;;;;;;1.98;1.40;;;19.40;78.90;;;;;;2300293;58;21062;-75
2022/07/07 06:17:40;;;;;;;1.40;1.30;;;19.50;79.10;;;;;;2300423;58;21595;-75
2022/07/07 06:20:10;;;;;;;1.98;1.30;;;19.50;79.10;;;;;;2300249;58;21126;-75
2022/07/07 06:22:37;;;;;;;5.40;1.40;;;19.60;79.20;;;;;;2300044;58;21062;-75
2022/07/07 06:25:08;;;;;;;1.42;1.27;;;19.60;78.80;;;;;;2299437;58;21552;-75
2022/07/07 06:27:36;;;;;;;4.40;1.87;;;19.70;78.40;;;;;;2299833;58;21082;-75
2022/07/07 06:30:04;;;;;;;1.65;1.20;;;19.70;78.60;;;;;;2300406;58;21134;-75
2022/07/07 06:32:32;;;;;;;3.22;1.45;;;19.70;78.80;;;;;;2537512;54;21529;-75
2022/07/07 06:34:59;;;;;;;4.37;1.40;;;19.80;78.70;;;;;;2299945;58;21557;-75
2022/07/07 06:37:27;;;;;;;2.03;1.20;;;19.90;78.50;;;;;;2299739;58;21047;-75
2022/07/07 06:39:54;;;;;;;2.25;1.27;;;19.90;78.00;;;;;;2300004;58;21062;-75
2022/07/07 06:42:21;;;;;;;1.95;1.23;;;19.90;78.00;;;;;;2300028;58;21059;-75
2022/07/07 06:44:49;;;;;;;2.87;1.50;;;20.00;78.10;;;;;;2537422;54;21054;-75
2022/07/07 06:47:16;;;;;;;1.60;1.35;;;20.10;78.70;;;;;;2299482;58;21078;-75
2022/07/07 06:49:43;;;;;;;2.00;1.17;;;20.10;78.20;;;;;;2299181;58;22158;-75
2022/07/07 06:52:12;;;;;;;2.78;1.10;;;20.20;78.30;;;;;;2300119;58;21580;-75
2022/07/07 06:54:39;;;;;;;1.25;1.15;;;20.20;78.20;;;;;;2300081;58;21387;-75
2022/07/07 06:57:07;;;;;;;2.22;1.35;;;20.30;78.30;;;;;;2299914;58;21103;-76
2022/07/07 06:59:35;;;;;;;1.50;1.05;;;20.30;77.90;;;;;;2299170;58;21592;-75
2022/07/07 07:02:04;;;;;;;2.65;1.33;;;20.30;77.20;;;;;;2300412;58;21063;-75
2022/07/07 07:04:31;;;;;;;5.55;1.33;;;20.40;76.90;;;;;;2300351;58;21133;-75
2022/07/07 07:06:59;;;;;;;3.37;1.70;;;20.40;77.40;;;;;;2299720;58;21063;-76
2022/07/07 07:09:26;;;;;;;6.72;1.40;;;20.50;76.90;;;;;;2300202;58;21388;-75
2022/07/07 07:11:54;;;;;;;3.47;1.83;;;20.50;76.60;;;;;;2300575;58;21143;-75
2022/07/07 07:14:21;;;;;;;2.12;1.33;;;20.50;76.30;;;;;;2299014;58;21138;-76
2022/07/07 07:16:49;;;;;;;10.23;1.70;;;20.50;76.30;;;;;;2299433;58;21138;-75
2022/07/07 07:19:16;;;;;;;2.78;1.35;;;20.60;76.50;;;;;;2300415;58;21074;-75
2022/07/07 07:21:43;;;;;;;1.60;1.27;;;20.60;76.40;;;;;;2300324;58;21637;-76
2022/07/07 07:24:12;;;;;;;3.65;1.30;;;20.60;75.90;;;;;;2300050;58;21146;-76
2022/07/07 07:26:40;;;;;;;3.65;1.20;;;20.60;75.60;;;;;;2299573;58;21111;-75
2022/07/07 07:29:07;;;;;;;2.67;1.15;;;20.60;75.10;;;;;;2299671;58;21130;-76
2022/07/07 07:31:34;;;;;;;2.00;0.85;;;20.60;75.70;;;;;;2300231;58;21062;-75
2022/07/07 07:34:02;;;;;;;2.45;1.42;;;20.60;74.60;;;;;;2300000;58;21063;-76
2022/07/07 07:36:29;;;;;;;2.03;1.23;;;20.60;74.70;;;;;;2299595;58;21140;-76
2022/07/07 07:38:58;;;;;;;1.20;0.90;;;20.60;74.20;;;;;;2300476;58;21656;-76
2022/07/07 07:41:26;;;;;;;4.43;1.80;;;20.60;74.30;;;;;;2300381;58;21054;-76
2022/07/07 07:43:53;;;;;;;2.75;1.25;;;20.60;74.20;;;;;;2299754;58;21153;-76
2022/07/07 07:46:20;;;;;;;4.00;1.80;;;20.60;73.90;;;;;;2299249;58;21066;-75
2022/07/07 07:48:48;;;;;;;7.15;1.60;;;20.60;74.40;;;;;;2299467;58;21130;-75
2022/07/07 07:51:15;;;;;;;2.87;1.40;;;20.60;74.10;;;;;;2300111;58;21158;-76
2022/07/07 07:53:42;;;;;;;4.43;1.77;;;20.60;74.20;;;;;;2300298;58;21050;-75
2022/07/07 07:56:10;;;;;;;2.80;1.33;;;20.60;75.20;;;;;;2299612;58;21125;-75
2022/07/07 07:58:37;;;;;;;2.25;1.45;;;20.60;75.60;;;;;;2300255;58;21741;-75
2022/07/07 08:01:05;;;;;;;4.72;2.53;;;20.70;76.10;;;;;;2300059;58;21617;-76
2022/07/07 08:03:32;;;;;;;5.97;1.90;;;20.70;75.50;;;;;;2299399;58;21130;-76
2022/07/07 08:06:00;;;;;;;3.40;1.48;;;20.70;75.50;;;;;;2299732;58;21389;-76
2022/07/07 08:08:27;;;;;;;4.97;1.80;;;20.70;75.10;;;;;;2299213;58;21663;-76
2022/07/07 08:10:55;;;;;;;2.95;1.25;;;20.60;74.50;;;;;;2299830;58;21066;-75
2022/07/07 08:13:22;;;;;;;3.33;1.40;;;20.50;75.00;;;;;;2300204;58;21596;-75
2022/07/07 08:15:50;;;;;;;1.58;1.08;;;20.40;74.70;;;;;;2298891;58;21106;-75
2022/07/07 08:18:17;;;;;;;2.35;1.52;;;20.30;75.00;;;;;;2300407;58;21051;-74
2022/07/07 08:20:44;;;;;;;4.15;1.65;;;20.20;74.80;;;;;;2300288;58;21138;-74
2022/07/07 08:23:12;;;;;;;3.22;1.60;;;20.10;76.10;;;;;;2300731;58;21070;-75
2022/07/07 08:25:39;;;;;;;4.70;1.60;;;19.90;76.60;;;;;;2299488;58;21134;-75
2022/07/07 08:28:07;;;;;;;2.92;1.75;;;19.90;77.60;;;;;;2300335;58;21126;-75
2022/07/07 08:30:34;;;;;;;5.00;2.20;;;19.90;78.70;;;;;;2300278;58;21051;-74
2022/07/07 08:33:02;;;;;;;4.82;2.12;;;19.90;78.00;;;;;;2299158;58;21073;-75
2022/07/07 08:35:29;;;;;;;3.70;1.80;;;19.80;77.30;;;;;;2299685;58;21544;-75
2022/07/07 08:37:57;;;;;;;4.65;1.90;;;19.80;77.50;;;;;;2300215;58;21661;-75
2022/07/07 08:40:25;;;;;;;2.40;1.70;;;19.80;77.50;;;;;;2300207;58;22113;-75
2022/07/07 08:42:52;;;;;;;4.68;1.70;;;19.70;77.90;;;;;;2300087;58;21130;-76
2022/07/07 08:45:19;;;;;;;4.12;1.65;;;19.70;77.70;;;;;;2299405;58;21135;-75
2022/07/07 08:47:47;;;;;;;4.78;1.87;;;19.60;78.10;;;;;;2300066;58;21070;-75
2022/07/07 08:50:15;;;;;;;6.32;2.00;;;19.50;79.10;;;;;;2299188;58;21127;-75
2022/07/07 08:52:42;;;;;;;3.47;1.80;;;19.50;78.80;;;;;;2300243;58;21125;-75
2022/07/07 08:55:12;;;;;;;7.45;1.83;;;19.40;78.20;;;;;;2536789;54;21118;-75
2022/07/07 08:57:40;;;;;;;3.35;1.70;;;19.40;77.90;;;;;;2298701;58;21225;-75
2022/07/07 09:00:10;;;;;;;4.18;1.62;;;19.40;78.00;;;;;;2299627;58;21105;-75
2022/07/07 09:02:37;;;;;;;2.75;1.58;;;19.40;78.70;;;;;;2299790;58;21134;-76
2022/07/07 09:05:06;;;;;;;5.72;1.65;;;19.50;77.90;;;;;;2298847;58;21062;-75
2022/07/07 09:07:46;;;;;;;6.95;2.12;;;19.50;77.40;;;;;;2299448;58;21075;-75
2022/07/07 09:10:28;;;;;;;5.22;1.67;;;19.50;77.50;;;;;;2299927;58;21058;-75
2022/07/07 09:12:56;;;;;;;3.80;1.30;;;19.50;76.90;;;;;;2300354;58;21043;-75
2022/07/07 09:15:24;;;;;;;3.92;1.62;;;19.60;76.90;;;;;;2299955;58;21565;-75
2022/07/07 09:17:52;;;;;;;6.25;1.40;;;19.70;77.00;;;;;;2300113;58;21138;-75
2022/07/07 09:20:19;;;;;;;2.90;1.23;;;19.80;76.80;;;;;;2300385;58;21062;-76
2022/07/07 09:22:51;;;;;;;7.40;1.48;;;19.90;76.10;;;;;;2300119;58;21561;-75
2022/07/07 09:25:20;;;;;;;3.92;1.65;;;20.00;75.60;;;;;;2299903;58;21062;-76
2022/07/07 09:27:53;;;;;;;6.90;2.05;;;20.10;75.30;;;;;;2300197;58;21074;-75
2022/07/07 09:30:32;;;;;;;3.57;1.40;;;20.10;73.90;;;;;;2300521;58;21622;-75
2022/07/07 09:33:01;;;;;;;4.28;1.60;;;20.10;73.80;;;;;;2299966;58;21129;-75
2022/07/07 09:38:17;;;;;;;6.43;1.60;;;20.30;73.70;;;;;;2537409;54;20963;-75
2022/07/07 09:40:59;;;;;;;4.70;1.62;;;20.30;74.10;;;;;;2300313;58;21148;-75
2022/07/07 09:43:28;;;;;;;3.03;1.20;;;20.40;74.10;;;;;;2300260;58;21062;-75
2022/07/07 09:46:13;;;;;;;2.67;1.33;;;20.40;73.50;;;;;;2299660;58;21166;-75
2022/07/07 09:48:42;;;;;;;4.90;1.77;;;20.40;73.00;;;;;;2299840;58;21050;-76
2022/07/07 09:51:14;;;;;;;2.60;1.30;;;20.40;72.90;;;;;;2299379;58;21091;-75
2022/07/07 09:53:57;;;;;;;5.07;1.70;;;20.40;72.90;;;;;;2300392;58;21613;-75
2022/07/07 09:56:26;;;;;;;5.28;1.50;;;20.50;72.50;;;;;;2299333;58;21090;-75
2022/07/07 09:58:54;;;;;;;2.58;1.30;;;20.50;73.20;;;;;;2537098;54;21094;-75
2022/07/07 10:01:25;;;;;;;3.83;1.55;;;20.60;72.50;;;;;;2300087;58;21082;-74
2022/07/07 10:03:56;;;;;;;4.90;1.90;;;20.70;72.80;;;;;;2299618;58;21153;-75
2022/07/07 10:06:24;;;;;;;4.05;1.70;;;20.80;71.80;;;;;;2299621;58;21138;-74
2022/07/07 10:08:57;;;;;;;4.68;1.80;;;20.80;71.40;;;;;;2300359;58;21066;-74
2022/07/07 10:11:34;;;;;;;6.15;1.40;;;20.80;71.10;;;;;;2300603;58;21126;-74
2022/07/07 10:14:12;;;;;;;7.80;1.60;;;20.80;71.50;;;;;;2300351;58;21114;-75
2022/07/07 10:16:40;;;;;;;3.33;1.50;;;20.80;71.60;;;;;;2298907;58;21122;-75
2022/07/07 10:19:10;;;;;;;4.93;1.52;;;20.90;72.30;;;;;;2299391;58;21786;-75
2022/07/07 10:21:37;;;;;;;4.75;1.90;;;21.00;72.80;;;;;;2300162;58;21134;-75
2022/07/07 10:24:06;;;;;;;3.40;1.40;;;21.10;71.30;;;;;;2398682;54;21109;-75
2022/07/07 10:26:38;;;;;;;4.25;1.52;;;21.10;70.90;;;;;;2309491;58;21050;-75
2022/07/07 10:29:07;;;;;;;4.87;1.20;;;21.10;70.10;;;;;;2312727;57;21552;-75
2022/07/07 10:31:35;;;;;;;4.45;1.48;;;21.10;67.30;;;;;;2334337;57;21120;-75
2022/07/07 10:34:05;;;;;;;4.32;1.33;;;20.90;67.00;;;;;;2333828;57;21109;-76
2022/07/07 10:37:05;;;;;;;4.00;1.30;;;20.90;68.00;;;;;;2332975;57;21194;-75
2022/07/07 10:39:37;;;;;;;4.30;1.65;;;21.00;68.10;;;;;;2334280;57;21098;-75
2022/07/07 10:42:13;;;;;;;6.05;1.70;;;21.00;67.10;;;;;;2334048;57;21053;-75
2022/07/07 10:44:43;;;;;;;3.83;1.30;;;21.00;66.70;;;;;;2577878;53;21117;-75
2022/07/07 10:47:30;;;;;;;5.32;1.70;;;21.00;66.70;;;;;;2333627;57;21121;-75
2022/07/07 10:49:59;;;;;;;2.30;1.17;;;21.00;66.50;;;;;;2334101;57;21149;-72
2022/07/07 10:52:28;;;;;;;2.03;1.05;;;21.10;65.40;;;;;;2334435;57;21172;-74
2022/07/07 10:54:59;;;;;;;4.10;1.60;;;21.10;65.30;;;;;;2333841;57;21030;-74
2022/07/07 10:57:27;;;;;;;6.57;1.30;;;21.10;65.60;;;;;;2333784;57;21042;-75
2022/07/07 11:00:16;;;;;;;3.78;1.10;;;21.10;65.60;;;;;;2333341;57;21070;-75
2022/07/07 11:02:47;;;;;;;2.55;1.23;;;21.10;64.90;;;;;;2334159;57;21073;-75
2022/07/07 11:05:34;;;;;;;4.00;1.08;;;21.10;64.50;;;;;;2334005;57;21134;-75
2022/07/07 11:08:34;;;;;;;3.22;1.25;;;21.20;63.20;;;;;;2333167;57;21058;-72
2022/07/07 11:11:03;;;;;;;2.50;0.80;;;21.30;64.50;;;;;;2333829;57;21579;-74
2022/07/07 11:13:34;;;;;;;3.45;0.82;;;21.40;63.30;;;;;;2334299;57;21101;-74
2022/07/07 11:16:15;;;;;;;2.22;1.20;;;21.40;62.10;;;;;;2333473;57;21058;-74
2022/07/07 11:18:47;;;;;;;3.28;1.45;;;21.40;62.70;;;;;;2578501;53;21054;-75
2022/07/07 11:21:14;;;;;;;4.22;1.08;;;21.40;63.30;;;;;;2333850;57;21054;-73
2022/07/07 11:23:54;;;;;;;2.47;0.98;;;21.40;62.70;;;;;;2332804;57;21125;-75
2022/07/07 11:26:23;;;;;;;2.85;1.10;;;21.30;62.90;;;;;;2333862;57;21034;-75
2022/07/07 11:28:51;;;;;;;2.60;0.90;;;21.40;61.90;;;;;;2333940;57;21109;-74
2022/07/07 11:31:19;;;;;;;2.37;0.70;;;21.30;62.20;;;;;;2334546;57;21050;-73
2022/07/07 11:33:50;;;;;;;3.83;0.90;;;21.30;61.80;;;;;;2334218;57;21097;-75
2022/07/07 11:36:19;;;;;;;4.87;0.93;;;21.40;62.40;;;;;;2333960;57;21125;-74
2022/07/07 11:38:48;;;;;;;2.25;0.88;;;21.50;63.10;;;;;;2333794;57;21305;-75
2022/07/07 11:41:16;;;;;;;3.22;1.00;;;21.60;62.60;;;;;;2333109;57;21129;-75
2022/07/07 11:43:43;;;;;;;4.20;1.45;;;21.70;62.70;;;;;;2578532;53;21057;-74
2022/07/07 11:46:11;;;;;;;2.15;1.08;;;21.80;61.50;;;;;;2330027;57;21046;-72
2022/07/07 11:48:41;;;;;;;2.97;1.33;;;21.90;60.70;;;;;;2332086;57;21058;-75
2022/07/07 11:51:09;;;;;;;2.62;1.20;;;21.80;60.50;;;;;;2332409;57;21069;-74
2022/07/07 11:53:36;;;;;;;3.28;0.80;;;21.80;60.80;;;;;;2333051;57;21106;-74
2022/07/07 11:56:06;;;;;;;4.37;1.50;;;21.70;62.00;;;;;;2332948;57;21129;-74
2022/07/07 11:58:34;;;;;;;3.53;1.40;;;21.70;62.80;;;;;;2333568;57;21421;-75
2022/07/07 12:03:37;;;;;;;3.00;1.57;;;21.60;63.10;;;;;;2333498;57;36183;-74
2022/07/07 12:06:05;;;;;;;2.90;1.27;;;21.50;64.00;;;;;;2343064;57;21113;-73
2022/07/07 12:08:34;;;;;;;4.35;1.42;;;21.50;63.60;;;;;;2593071;53;21069;-74
2022/07/07 12:11:02;;;;;;;3.80;1.12;;;21.40;64.80;;;;;;2369542;56;21620;-74
2022/07/07 12:13:29;;;;;;;2.20;0.90;;;21.20;66.50;;;;;;2372761;56;21054;-72
2022/07/07 12:15:58;;;;;;;1.77;0.85;;;21.00;67.00;;;;;;2373073;56;21318;-74
2022/07/07 12:18:33;;;;;;;1.50;0.80;;;20.90;68.00;;;;;;2375123;56;21316;-73
2022/07/07 12:21:03;;;;;;;6.20;2.28;;;20.80;68.90;;;;;;2627763;52;21059;-74
2022/07/07 12:23:34;;;;;;;3.42;1.40;;;20.60;68.70;;;;;;2373361;56;21074;-74
2022/07/07 12:26:12;;;;;;;1.12;0.80;;;20.50;69.70;;;;;;2373109;56;21034;-75
2022/07/07 12:28:40;;;;;;;3.08;1.02;;;20.40;70.60;;;;;;2373412;56;21477;-74
2022/07/07 12:31:08;;;;;;;7.53;1.50;;;20.40;70.10;;;;;;2374296;56;21101;-73
2022/07/07 12:33:37;;;;;;;4.87;1.33;;;20.30;70.10;;;;;;2373735;56;21119;-73
2022/07/07 12:36:10;;;;;;;3.00;1.40;;;20.20;70.60;;;;;;2373413;56;21054;-73
2022/07/07 12:38:39;;;;;;;2.30;1.13;;;20.20;71.00;;;;;;2373374;56;21121;-75
2022/07/07 12:43:43;;;;;;;7.22;1.92;;;20.10;70.80;;;;;;2327710;57;22059;-72
2022/07/07 12:46:11;;;;;;;4.90;1.73;;;20.10;71.20;;;;;;2346017;57;21117;-74
2022/07/07 12:48:47;;;;;;;6.53;1.77;;;20.20;72.10;;;;;;2346262;57;21038;-72
2022/07/07 12:51:14;;;;;;;7.10;1.92;;;20.30;72.00;;;;;;2346670;57;21104;-75
2022/07/07 12:53:43;;;;;;;8.32;2.12;;;20.50;71.90;;;;;;2345527;57;21109;-74
2022/07/07 12:56:13;;;;;;;2.55;1.37;;;20.70;70.90;;;;;;2592472;53;21026;-75
2022/07/07 12:58:49;;;;;;;10.93;2.33;;;20.80;70.30;;;;;;2346123;57;21052;-75
2022/07/07 13:03:58;;;;;;;10.25;2.05;;;20.60;66.70;;;;;;2354446;57;22545;-73
2022/07/07 13:06:26;;;;;;;11.57;2.40;;;20.50;65.20;;;;;;2593173;53;21117;-74